Time;durP1;ratioP1;P1;durP2;ratioP2;P2;SDS_P1;SDS_P2;PMS_P1;PMS_P2;Temp;Humidity;BMP_temperature;BMP_pressure;BME280_temperature;BME280_humidity;BME280_pressure;Samples;Min_cycle;Max_cycle;Signal;HPM_P1;HPM_P2
2021/04/06 00:01:57;;;;;;;7.17;3.67;;;;;;;0.59;77.40;97600.10;2210771;81;21268;-79
2021/04/06 00:04:58;;;;;;;6.40;3.60;;;;;;;0.59;77.29;97601.39;2210878;81;21138;-79
2021/04/06 00:07:59;;;;;;;5.30;3.67;;;;;;;0.61;77.45;97599.73;2210272;81;21707;-78
2021/04/06 00:11:00;;;;;;;5.03;3.37;;;;;;;0.66;77.23;97601.58;2210382;81;21146;-78
2021/04/06 00:14:01;;;;;;;7.50;3.87;;;;;;;0.63;77.25;97594.23;2210485;81;21106;-78
2021/04/06 00:17:02;;;;;;;6.13;4.37;;;;;;;0.64;77.14;97603.69;2210396;81;21292;-78
2021/04/06 00:20:03;;;;;;;9.93;4.03;;;;;;;0.62;77.15;97596.75;2210501;81;21420;-79
2021/04/06 00:23:04;;;;;;;5.90;3.60;;;;;;;0.58;77.28;97604.78;2210592;81;21125;-79
2021/04/06 00:26:05;;;;;;;11.33;5.80;;;;;;;0.58;77.59;97609.05;2210303;81;21248;-79
2021/04/06 00:29:06;;;;;;;7.47;4.27;;;;;;;0.54;77.33;97608.48;2210311;81;21161;-78
2021/04/06 00:32:07;;;;;;;10.70;5.20;;;;;;;0.55;77.61;97612.39;2210403;81;21240;-78
2021/04/06 00:35:08;;;;;;;8.07;5.57;;;;;;;0.54;77.45;97614.50;2215146;80;21177;-78
2021/04/06 00:38:10;;;;;;;7.90;4.73;;;;;;;0.54;77.36;97619.63;2217593;80;21601;-78
2021/04/06 00:41:11;;;;;;;10.27;5.57;;;;;;;0.55;77.54;97614.08;2217526;80;21272;-77
2021/04/06 00:44:12;;;;;;;5.00;4.47;;;;;;;0.53;77.69;97619.17;2217564;80;21122;-78
2021/04/06 00:47:14;;;;;;;10.70;6.23;;;;;;;0.55;77.79;97612.39;2217358;80;21646;-79
2021/04/06 00:50:15;;;;;;;11.47;5.60;;;;;;;0.53;77.55;97614.03;2217669;80;21265;-79
2021/04/06 00:53:16;;;;;;;12.80;8.00;;;;;;;0.51;77.87;97609.27;2217712;80;21153;-79
2021/04/06 00:56:17;;;;;;;20.00;7.73;;;;;;;0.53;77.57;97610.59;2217216;80;21565;-78
2021/04/06 00:59:21;;;;;;;12.93;8.07;;;;;;;0.52;77.56;97609.73;2217576;80;21174;-80
2021/04/06 01:02:21;;;;;;;12.37;7.50;;;;;;;0.51;77.49;97628.52;2217830;80;21244;-80
2021/04/06 01:05:22;;;;;;;9.57;6.43;;;;;;;0.52;77.73;97639.25;2217568;80;21122;-80
2021/04/06 01:08:23;;;;;;;8.83;6.50;;;;;;;0.50;77.88;97637.05;2217540;80;21249;-79
2021/04/06 01:11:25;;;;;;;15.13;7.50;;;;;;;0.49;77.76;97640.44;2217557;80;21420;-79
2021/04/06 01:14:26;;;;;;;13.97;8.53;;;;;;;0.50;77.54;97629.34;2217339;80;21306;-78
2021/04/06 01:17:27;;;;;;;18.13;7.53;;;;;;;0.51;77.56;97629.81;2217381;80;21276;-79
2021/04/06 01:20:29;;;;;;;20.03;9.30;;;;;;;0.54;77.52;97633.75;2217565;80;21148;-78
2021/04/06 01:23:31;;;;;;;17.90;7.80;;;;;;;0.53;77.24;97626.88;2217356;80;21260;-78
2021/04/06 01:26:32;;;;;;;9.67;6.60;;;;;;;0.52;77.19;97621.28;2217239;80;21134;-78
2021/04/06 01:29:33;;;;;;;15.07;8.53;;;;;;;0.54;77.46;97626.05;2217246;80;21279;-79
2021/04/06 01:32:34;;;;;;;15.63;9.30;;;;;;;0.54;77.07;97635.04;2217585;80;21129;-78
2021/04/06 01:35:35;;;;;;;10.10;6.23;;;;;;;0.52;76.79;97642.23;2211957;80;21565;-78
2021/04/06 01:38:37;;;;;;;10.37;6.93;;;;;;;0.46;76.13;97640.34;2209989;81;21151;-77
2021/04/06 01:41:38;;;;;;;12.67;7.77;;;;;;;0.41;76.43;97635.48;2210327;81;21236;-79
2021/04/06 01:44:42;;;;;;;10.17;7.50;;;;;;;0.43;76.54;97630.39;2210134;81;21256;-78
2021/04/06 01:47:42;;;;;;;9.93;7.97;;;;;;;0.45;76.33;97632.59;2210295;81;21285;-78
2021/04/06 01:50:43;;;;;;;8.97;6.23;;;;;;;0.44;76.19;97631.72;2210590;81;21138;-79
2021/04/06 01:53:44;;;;;;;13.23;6.80;;;;;;;0.43;76.20;97643.22;2210310;81;21236;-78
2021/04/06 01:56:49;;;;;;;10.43;7.80;;;;;;;0.39;76.08;97650.37;2210095;81;21522;-77
2021/04/06 01:59:53;;;;;;;11.13;6.63;;;;;;;0.38;76.09;97649.49;2209758;80;21260;-78
2021/04/06 02:02:51;;;;;;;10.30;5.67;;;;;;;0.37;75.79;97647.75;2209592;80;21257;-80
2021/04/06 02:05:52;;;;;;;12.47;6.10;;;;;;;0.31;75.74;97652.27;2210117;81;21248;-79
2021/04/06 02:08:53;;;;;;;10.07;5.63;;;;;;;0.29;75.79;97644.06;2210208;81;21123;-78
2021/04/06 02:11:55;;;;;;;13.37;5.90;;;;;;;0.28;75.82;97647.45;2210279;81;21249;-78
2021/04/06 02:14:56;;;;;;;10.20;4.77;;;;;;;0.25;75.75;97646.94;2210198;81;21130;-78
2021/04/06 02:17:57;;;;;;;9.00;4.90;;;;;;;0.19;75.34;97640.33;2210153;81;21562;-79
2021/04/06 02:20:58;;;;;;;10.87;5.27;;;;;;;0.16;75.53;97645.77;2210457;81;21142;-78
2021/04/06 02:23:59;;;;;;;12.70;5.10;;;;;;;0.13;75.61;97645.67;2210326;81;21240;-79
2021/04/06 02:27:00;;;;;;;15.13;5.80;;;;;;;0.13;75.99;97658.09;2210457;81;21138;-78
2021/04/06 02:30:01;;;;;;;9.17;3.97;;;;;;;0.10;75.33;97658.39;2210444;81;21126;-79
2021/04/06 02:33:02;;;;;;;10.03;4.77;;;;;;;0.05;75.67;97662.50;2211214;81;21138;-78
2021/04/06 02:36:03;;;;;;;9.13;5.07;;;;;;;0.03;75.72;97664.14;2216052;80;21275;-79
2021/04/06 02:39:04;;;;;;;10.83;4.83;;;;;;;0.04;75.40;97662.03;2217231;80;21277;-78
2021/04/06 02:42:05;;;;;;;9.23;4.43;;;;;;;0.02;75.24;97660.70;2217486;80;21589;-79
2021/04/06 02:45:06;;;;;;;11.57;4.77;;;;;;;0.02;75.22;97658.55;2217386;80;21252;-78
2021/04/06 02:48:10;;;;;;;15.67;5.67;;;;;;;-0.02;74.97;97649.84;2217566;80;21166;-78
2021/04/06 02:51:10;;;;;;;14.67;5.83;;;;;;;-0.06;75.23;97654.41;2217548;80;21268;-79
2021/04/06 02:54:11;;;;;;;14.33;5.90;;;;;;;-0.08;74.87;97662.45;2217635;80;21098;-79
2021/04/06 02:57:12;;;;;;;18.50;6.93;;;;;;;-0.12;74.90;97664.05;2217709;80;21154;-79
2021/04/06 03:00:13;;;;;;;13.10;6.17;;;;;;;-0.11;74.90;97669.64;2217568;80;21263;-79
2021/04/06 03:03:14;;;;;;;12.63;5.17;;;;;;;-0.15;74.91;97669.07;2217326;80;21439;-79
2021/04/06 03:06:16;;;;;;;32.60;10.97;;;;;;;-0.19;75.11;97678.77;2218056;80;21098;-78
2021/04/06 03:09:19;;;;;;;14.10;5.37;;;;;;;-0.14;77.42;97684.92;2217619;80;21102;-80
2021/04/06 03:12:21;;;;;;;11.33;5.00;;;;;;;0.01;74.55;97683.74;2217994;80;21561;-78
2021/04/06 03:15:22;;;;;;;10.47;4.90;;;;;;;-0.10;74.55;97666.66;2217966;80;21133;-78
2021/04/06 03:18:23;;;;;;;10.90;4.50;;;;;;;-0.18;74.66;97681.79;2217422;80;21613;-78
2021/04/06 03:21:24;;;;;;;11.33;4.93;;;;;;;-0.25;74.94;97690.09;2217808;80;21114;-78
2021/04/06 03:24:25;;;;;;;14.27;5.20;;;;;;;-0.31;75.11;97692.44;2217335;80;21141;-78
2021/04/06 03:27:26;;;;;;;11.87;5.40;;;;;;;-0.40;75.25;97702.36;2217282;80;21261;-78
2021/04/06 03:30:32;;;;;;;14.03;5.13;;;;;;;-0.46;75.38;97712.39;2217242;80;21523;-78
2021/04/06 03:33:34;;;;;;;11.50;4.83;;;;;;;-0.51;75.59;97700.69;2217187;80;21302;-78
2021/04/06 03:36:35;;;;;;;14.83;5.43;;;;;;;-0.54;74.85;97708.67;2219152;80;21182;-77
2021/04/06 03:39:36;;;;;;;16.60;6.63;;;;;;;-0.54;75.73;97709.55;2219121;80;21284;-76
2021/04/06 03:42:37;;;;;;;11.60;5.73;;;;;;;-0.54;75.80;97711.24;2218887;80;21261;-76
2021/04/06 03:45:38;;;;;;;17.20;6.27;;;;;;;-0.51;75.69;97717.35;2219488;80;21843;-77
2021/04/06 03:48:39;;;;;;;15.13;6.60;;;;;;;-0.49;75.85;97736.64;2219790;80;21506;-75
2021/04/06 03:51:40;;;;;;;10.07;5.13;;;;;;;-0.50;75.51;97725.92;2219333;80;21094;-78
2021/04/06 03:54:42;;;;;;;11.67;5.33;;;;;;;-0.49;75.89;97741.36;2218029;80;21293;-77
2021/04/06 03:57:45;;;;;;;12.93;5.60;;;;;;;-0.45;75.17;97726.96;2217953;80;21296;-76
2021/04/06 04:00:47;;;;;;;16.60;5.87;;;;;;;-0.42;75.31;97723.22;2218409;80;21271;-78
2021/04/06 04:03:48;;;;;;;11.03;4.50;;;;;;;-0.41;74.92;97719.84;2217624;80;21127;-77
2021/04/06 04:06:49;;;;;;;11.47;4.50;;;;;;;-0.42;74.73;97712.56;2218195;80;21520;-76
2021/04/06 04:09:50;;;;;;;12.33;4.80;;;;;;;-0.41;75.08;97724.56;2218110;80;21523;-78
2021/04/06 04:12:51;;;;;;;8.20;4.57;;;;;;;-0.37;74.89;97721.30;2218107;80;21161;-76
2021/04/06 04:15:52;;;;;;;12.13;5.53;;;;;;;-0.33;74.83;97720.99;2217332;80;22206;-77
2021/04/06 04:18:53;;;;;;;10.17;5.17;;;;;;;-0.30;74.69;97724.95;2217823;80;21192;-78
2021/04/06 04:21:54;;;;;;;22.33;7.03;;;;;;;-0.30;74.69;97744.19;2218000;80;21248;-77
2021/04/06 04:24:55;;;;;;;21.57;7.77;;;;;;;-0.25;74.74;97750.77;2218044;80;21141;-77
2021/04/06 04:27:56;;;;;;;24.47;8.03;;;;;;;-0.22;74.40;97752.16;2217776;80;21898;-78
2021/04/06 04:31:01;;;;;;;19.13;7.67;;;;;;;-0.20;74.70;97742.41;2218243;80;21106;-78
2021/04/06 04:34:00;;;;;;;19.47;7.70;;;;;;;-0.15;74.62;97747.30;2218188;80;21284;-77
2021/04/06 04:37:01;;;;;;;11.53;6.77;;;;;;;-0.12;74.41;97740.13;2219301;80;21296;-76
2021/04/06 04:40:02;;;;;;;11.83;6.77;;;;;;;-0.11;74.31;97742.75;2219522;80;21133;-77
2021/04/06 04:43:03;;;;;;;21.10;6.60;;;;;;;-0.05;74.16;97728.85;2219135;80;21459;-77
2021/04/06 04:46:04;;;;;;;13.80;5.20;;;;;;;0.01;74.25;97742.75;2218817;80;21122;-77
2021/04/06 04:49:06;;;;;;;14.43;5.43;;;;;;;-0.01;73.71;97752.52;2219114;80;21271;-77
2021/04/06 04:52:07;;;;;;;25.67;10.57;;;;;;;-0.04;73.89;97753.69;2219039;80;21296;-78
2021/04/06 04:55:08;;;;;;;27.83;9.57;;;;;;;-0.02;74.89;97758.47;2218989;80;21150;-78
2021/04/06 04:58:09;;;;;;;22.20;10.50;;;;;;;0.03;73.58;97751.38;2219484;80;21304;-77
2021/04/06 05:01:10;;;;;;;23.97;9.70;;;;;;;-0.01;73.81;97757.64;2218895;80;21125;-78
2021/04/06 05:04:11;;;;;;;28.37;12.27;;;;;;;0.00;73.79;97764.97;2218761;80;21268;-77
2021/04/06 05:07:12;;;;;;;28.57;11.03;;;;;;;0.06;73.96;97769.44;2219246;80;21122;-76
2021/04/06 05:10:13;;;;;;;16.37;7.23;;;;;;;0.12;73.74;97755.13;2218880;80;21249;-78
2021/04/06 05:13:15;;;;;;;16.37;7.20;;;;;;;0.10;73.63;97758.47;2219226;80;21121;-77
2021/04/06 05:16:16;;;;;;;17.23;6.43;;;;;;;0.09;73.63;97750.30;2218713;80;21316;-76
2021/04/06 05:19:17;;;;;;;22.30;9.30;;;;;;;0.12;73.56;97772.22;2219156;80;21196;-78
2021/04/06 05:22:19;;;;;;;24.47;9.57;;;;;;;0.18;73.50;97787.42;2219330;80;21421;-78
2021/04/06 05:25:20;;;;;;;18.37;8.70;;;;;;;0.15;73.75;97773.61;2218924;80;21102;-77
2021/04/06 05:28:21;;;;;;;23.70;8.00;;;;;;;0.16;73.54;97772.80;2218797;80;21118;-77
2021/04/06 05:31:22;;;;;;;26.87;10.17;;;;;;;0.15;73.51;97776.18;2217836;80;21257;-76
2021/04/06 05:34:23;;;;;;;22.43;10.17;;;;;;;0.18;73.78;97786.55;2217838;80;21248;-77
2021/04/06 05:37:24;;;;;;;23.83;12.47;;;;;;;0.28;73.36;97793.75;2207920;80;21503;-77
2021/04/06 05:40:25;;;;;;;28.73;10.13;;;;;;;0.28;73.48;97797.60;2207929;80;21149;-78
2021/04/06 05:43:26;;;;;;;19.27;8.23;;;;;;;0.36;73.44;97784.63;2208093;80;21276;-78
2021/04/06 05:46:27;;;;;;;27.47;9.17;;;;;;;0.44;73.10;97796.44;2207693;81;21288;-76
2021/04/06 05:49:28;;;;;;;15.20;7.47;;;;;;;0.47;73.00;97796.14;2208055;81;21268;-76
2021/04/06 05:52:29;;;;;;;22.03;8.90;;;;;;;0.56;72.85;97807.13;2207480;81;21496;-75
2021/04/06 05:55:30;;;;;;;30.60;11.83;;;;;;;0.58;72.51;97814.06;2207670;81;21472;-77
2021/04/06 05:58:31;;;;;;;19.20;9.77;;;;;;;0.64;72.82;97819.82;2208226;80;21173;-77
2021/04/06 06:01:32;;;;;;;27.77;9.50;;;;;;;0.69;72.40;97818.28;2208354;81;21130;-78
2021/04/06 06:04:33;;;;;;;17.83;9.13;;;;;;;0.70;72.18;97814.02;2208187;81;21527;-77
2021/04/06 06:07:35;;;;;;;27.47;10.03;;;;;;;0.66;72.08;97809.19;2208200;81;21126;-77
2021/04/06 06:10:36;;;;;;;21.23;8.60;;;;;;;0.72;72.53;97802.97;2207854;80;21602;-78
2021/04/06 06:13:37;;;;;;;28.00;10.30;;;;;;;0.73;71.98;97797.42;2207908;81;21759;-77
2021/04/06 06:16:38;;;;;;;28.93;10.97;;;;;;;0.79;72.26;97811.76;2208609;80;21300;-76
2021/04/06 06:19:39;;;;;;;14.43;7.73;;;;;;;0.87;71.65;97814.20;2207868;80;21170;-78
2021/04/06 06:22:40;;;;;;;36.10;10.37;;;;;;;0.91;71.25;97819.91;2207735;81;21304;-77
2021/04/06 06:25:41;;;;;;;31.47;12.63;;;;;;;0.88;71.34;97826.23;2208421;80;21416;-77
2021/04/06 06:28:42;;;;;;;27.17;10.43;;;;;;;0.93;71.50;97821.70;2208622;80;21261;-77
2021/04/06 06:31:43;;;;;;;36.83;14.60;;;;;;;1.05;71.18;97823.80;2208124;80;21248;-77
2021/04/06 06:34:45;;;;;;;25.37;10.30;;;;;;;1.26;71.58;97823.20;2208632;80;21150;-76
2021/04/06 06:37:46;;;;;;;22.07;10.13;;;;;;;1.35;70.98;97816.60;2208465;80;21880;-77
2021/04/06 06:40:47;;;;;;;18.17;8.20;;;;;;;1.33;70.76;97815.27;2208122;80;21295;-77
2021/04/06 06:43:48;;;;;;;23.13;8.70;;;;;;;1.25;69.96;97809.89;2208744;81;21133;-77
2021/04/06 06:46:49;;;;;;;26.93;12.90;;;;;;;1.05;69.88;97821.23;2207852;81;21275;-77
2021/04/06 06:49:52;;;;;;;27.77;13.10;;;;;;;0.90;70.27;97826.73;2208267;80;21141;-76
2021/04/06 06:52:54;;;;;;;31.40;13.10;;;;;;;0.78;70.84;97823.73;2208190;81;21106;-76
2021/04/06 06:55:55;;;;;;;32.97;11.27;;;;;;;0.75;71.08;97830.45;2206553;80;21468;-76
2021/04/06 06:58:56;;;;;;;34.27;15.13;;;;;;;0.74;70.78;97827.42;2207560;80;21542;-75
2021/04/06 07:01:57;;;;;;;25.57;11.90;;;;;;;0.70;70.69;97823.01;2208058;80;21268;-75
2021/04/06 07:04:58;;;;;;;35.80;14.60;;;;;;;0.67;70.89;97821.20;2208239;80;21130;-75
2021/04/06 07:07:59;;;;;;;32.67;13.33;;;;;;;0.70;71.20;97822.59;2208164;81;21257;-75
2021/04/06 07:11:01;;;;;;;33.30;13.17;;;;;;;0.77;70.70;97818.54;2207477;80;21590;-75
2021/04/06 07:14:02;;;;;;;37.60;13.63;;;;;;;0.87;70.72;97827.05;2207710;80;21106;-76
2021/04/06 07:17:03;;;;;;;27.50;11.47;;;;;;;0.92;70.54;97824.22;2208483;80;21288;-78
2021/04/06 07:20:04;;;;;;;33.13;11.40;;;;;;;0.99;70.17;97826.58;2208173;80;21300;-77
2021/04/06 07:23:05;;;;;;;22.40;10.33;;;;;;;1.07;70.22;97832.44;2207588;81;21130;-76
2021/04/06 07:26:06;;;;;;;22.60;11.53;;;;;;;1.21;69.71;97832.88;2208537;81;21547;-79
2021/04/06 07:29:07;;;;;;;19.73;8.40;;;;;;;1.35;69.63;97822.61;2207714;80;21431;-76
2021/04/06 07:32:08;;;;;;;25.30;10.63;;;;;;;1.38;68.99;97823.13;2207899;81;21257;-76
2021/04/06 07:35:09;;;;;;;43.00;15.93;;;;;;;1.33;68.28;97820.82;2208075;80;21122;-75
2021/04/06 07:38:10;;;;;;;34.97;14.40;;;;;;;1.26;69.11;97817.19;2207943;80;21295;-76
2021/04/06 07:41:11;;;;;;;32.70;15.27;;;;;;;1.21;69.11;97813.59;2207561;80;21416;-76
2021/04/06 07:44:12;;;;;;;41.57;17.10;;;;;;;1.15;68.89;97812.98;2207762;80;21649;-76
2021/04/06 07:47:13;;;;;;;32.80;10.20;;;;;;;1.10;68.96;97819.68;2207706;80;21307;-77
2021/04/06 07:50:14;;;;;;;23.30;11.27;;;;;;;1.12;69.31;97820.60;2207831;81;21253;-75
2021/04/06 07:53:15;;;;;;;21.67;11.50;;;;;;;1.11;69.27;97826.56;2207597;80;21257;-77
2021/04/06 07:56:17;;;;;;;30.03;12.33;;;;;;;0.99;68.71;97842.00;2207921;80;21264;-76
2021/04/06 07:59:18;;;;;;;22.50;10.70;;;;;;;0.89;69.59;97836.55;2207616;80;21197;-76
2021/04/06 08:02:19;;;;;;;30.00;13.07;;;;;;;0.91;69.53;97849.45;2206487;80;21256;-76
2021/04/06 08:05:20;;;;;;;45.90;16.20;;;;;;;0.94;69.76;97846.58;2205794;80;21121;-76
2021/04/06 08:08:21;;;;;;;34.20;13.80;;;;;;;1.05;69.86;97853.35;2206706;80;21102;-76
2021/04/06 08:11:22;;;;;;;25.97;12.47;;;;;;;1.10;69.17;97853.09;2207150;81;21193;-75
2021/04/06 08:14:23;;;;;;;29.53;11.80;;;;;;;1.16;69.20;97857.14;2207832;80;21116;-77
2021/04/06 08:17:24;;;;;;;23.40;8.87;;;;;;;1.17;69.22;97856.73;2207261;80;21273;-77
2021/04/06 08:20:26;;;;;;;17.10;7.20;;;;;;;1.17;68.02;97860.59;2207444;81;21142;-76
2021/04/06 08:23:27;;;;;;;20.27;7.93;;;;;;;1.07;68.11;97858.13;2208020;81;21621;-75
2021/04/06 08:26:28;;;;;;;22.30;9.33;;;;;;;1.19;67.85;97861.52;2208440;81;21134;-76
2021/04/06 08:29:29;;;;;;;18.47;7.73;;;;;;;1.35;68.04;97846.17;2207639;81;21264;-77
2021/04/06 08:32:30;;;;;;;24.20;9.23;;;;;;;1.42;67.82;97842.97;2207395;81;21141;-74
2021/04/06 08:35:31;;;;;;;31.03;11.67;;;;;;;1.35;67.61;97836.76;2207453;80;21455;-76
2021/04/06 08:38:33;;;;;;;28.80;11.53;;;;;;;1.28;67.99;97844.69;2214979;80;21292;-77
2021/04/06 08:41:34;;;;;;;22.90;9.30;;;;;;;1.40;67.50;97844.20;2215079;80;21249;-77
2021/04/06 08:44:35;;;;;;;21.10;10.17;;;;;;;1.68;67.05;97847.22;2213996;80;21277;-77
2021/04/06 08:47:36;;;;;;;29.13;12.10;;;;;;;2.04;66.00;97835.89;2214512;80;21150;-77
2021/04/06 08:50:37;;;;;;;35.33;13.87;;;;;;;2.35;65.37;97853.49;2214899;80;21118;-77
2021/04/06 08:53:38;;;;;;;17.67;8.40;;;;;;;2.79;64.75;97853.45;2215039;80;21261;-77
2021/04/06 08:56:40;;;;;;;23.07;8.20;;;;;;;3.13;61.82;97847.03;2215656;80;21280;-77
2021/04/06 08:59:43;;;;;;;17.37;7.93;;;;;;;3.16;61.85;97843.23;2215473;80;21422;-77
2021/04/06 09:02:43;;;;;;;16.40;8.70;;;;;;;3.22;61.98;97841.64;2215840;80;21118;-76
2021/04/06 09:05:44;;;;;;;33.63;15.50;;;;;;;3.25;60.40;97836.14;2215579;80;21244;-76
2021/04/06 09:08:46;;;;;;;35.00;18.83;;;;;;;3.22;61.07;97846.38;2214954;80;21126;-76
2021/04/06 09:11:47;;;;;;;26.00;9.50;;;;;;;3.25;62.37;97841.72;2214806;80;21295;-77
2021/04/06 09:14:48;;;;;;;23.33;11.13;;;;;;;3.11;59.74;97835.80;2214432;80;21121;-76
2021/04/06 09:17:50;;;;;;;25.70;11.97;;;;;;;3.06;59.39;97846.42;2215232;80;23237;-79
2021/04/06 09:20:51;;;;;;;25.80;10.63;;;;;;;2.84;58.79;97844.13;2215263;80;21106;-77
2021/04/06 09:23:52;;;;;;;26.00;9.87;;;;;;;2.71;59.21;97838.20;2215732;80;21229;-77
2021/04/06 09:26:53;;;;;;;16.23;7.67;;;;;;;2.61;59.98;97837.08;2215604;80;21403;-77
2021/04/06 09:29:54;;;;;;;19.70;8.07;;;;;;;2.59;59.60;97836.55;2215903;80;21244;-77
2021/04/06 09:32:55;;;;;;;23.03;8.07;;;;;;;2.43;59.25;97828.41;2215713;80;21400;-77
2021/04/06 09:35:56;;;;;;;18.00;7.37;;;;;;;2.47;59.13;97835.39;2216173;80;21150;-78
2021/04/06 09:38:57;;;;;;;17.93;6.17;;;;;;;2.76;58.60;97825.89;2215631;80;21268;-77
2021/04/06 09:41:58;;;;;;;14.20;5.43;;;;;;;3.19;58.32;97824.39;2215989;80;21122;-78
2021/04/06 09:45:01;;;;;;;14.10;5.10;;;;;;;3.47;57.41;97828.11;2214161;80;21265;-78
2021/04/06 09:48:02;;;;;;;17.40;6.57;;;;;;;3.75;55.79;97823.58;2212279;80;21157;-78
2021/04/06 09:51:05;;;;;;;10.33;5.13;;;;;;;3.93;56.38;97813.64;2214555;80;21252;-77
2021/04/06 09:54:06;;;;;;;15.20;6.90;;;;;;;4.30;55.81;97800.20;2213793;80;21621;-77
2021/04/06 09:57:10;;;;;;;11.50;5.23;;;;;;;4.47;55.99;97808.75;2214219;80;21142;-77
2021/04/06 10:00:11;;;;;;;9.90;4.27;;;;;;;4.89;53.56;97801.75;2215629;80;21909;-76
2021/04/06 10:03:12;;;;;;;14.83;5.27;;;;;;;4.79;52.40;97807.19;2215250;80;21237;-77
2021/04/06 10:06:13;;;;;;;15.67;5.70;;;;;;;4.94;52.59;97798.41;2216271;80;21126;-77
2021/04/06 10:09:14;;;;;;;14.00;7.00;;;;;;;5.24;53.23;97795.48;2216490;80;21146;-76
2021/04/06 10:12:16;;;;;;;16.67;6.40;;;;;;;5.13;52.92;97794.41;2216407;80;21396;-76
2021/04/06 10:15:19;;;;;;;19.20;6.03;;;;;;;5.07;52.84;97797.77;2216967;80;21213;-78
2021/04/06 10:18:20;;;;;;;16.13;5.33;;;;;;;4.94;53.41;97789.77;2216763;80;21283;-77
2021/04/06 10:21:21;;;;;;;13.20;5.77;;;;;;;4.65;53.08;97797.02;2216788;80;21387;-76
2021/04/06 10:24:22;;;;;;;39.97;10.33;;;;;;;4.46;53.01;97791.93;2216795;80;21268;-76
2021/04/06 10:27:25;;;;;;;24.83;9.83;;;;;;;5.01;53.67;97785.16;2216865;80;21146;-77
2021/04/06 10:30:26;;;;;;;10.40;4.60;;;;;;;5.22;52.39;97786.83;2216717;80;21248;-76
2021/04/06 10:33:27;;;;;;;9.37;3.87;;;;;;;5.09;50.86;97794.78;2216156;80;21272;-77
2021/04/06 10:36:28;;;;;;;13.00;5.63;;;;;;;5.04;51.38;97795.12;2215173;80;21265;-76
2021/04/06 10:39:29;;;;;;;12.73;4.53;;;;;;;4.82;50.54;97805.95;2209032;81;21142;-78
2021/04/06 10:42:30;;;;;;;10.63;3.90;;;;;;;4.56;50.57;97800.30;2209050;81;21244;-79
2021/04/06 10:45:31;;;;;;;9.27;3.90;;;;;;;4.82;50.81;97796.90;2209334;81;21862;-77
2021/04/06 10:48:33;;;;;;;19.30;6.10;;;;;;;5.11;47.76;97786.62;2209695;81;21435;-77
2021/04/06 10:51:34;;;;;;;15.20;5.70;;;;;;;5.00;47.60;97782.12;2210207;81;21130;-78
2021/04/06 10:54:37;;;;;;;17.23;5.57;;;;;;;4.73;48.12;97785.97;2209560;80;21154;-78
2021/04/06 10:57:39;;;;;;;10.90;4.30;;;;;;;4.38;49.78;97793.08;2208741;81;21289;-78
2021/04/06 11:00:40;;;;;;;20.27;4.90;;;;;;;4.18;50.31;97793.07;2207794;81;21723;-79
2021/04/06 11:03:43;;;;;;;10.13;4.50;;;;;;;4.19;51.73;97792.23;2208426;81;21260;-77
2021/04/06 11:06:44;;;;;;;9.40;4.03;;;;;;;4.29;52.04;97783.83;2209423;81;21267;-76
2021/04/06 11:09:46;;;;;;;12.93;5.50;;;;;;;4.45;51.77;97783.31;2209849;81;21126;-78
2021/04/06 11:12:47;;;;;;;14.23;4.70;;;;;;;4.40;51.72;97777.18;2209373;81;21629;-77
2021/04/06 11:15:48;;;;;;;9.20;3.80;;;;;;;4.77;53.20;97772.26;2210363;81;21542;-78
2021/04/06 11:18:50;;;;;;;9.60;4.40;;;;;;;5.16;50.63;97765.13;2210303;81;21157;-78
2021/04/06 11:21:53;;;;;;;8.90;4.63;;;;;;;5.16;50.53;97762.55;2210193;81;21133;-77
2021/04/06 11:24:54;;;;;;;12.20;5.73;;;;;;;4.99;49.86;97766.16;2210120;81;21261;-77
2021/04/06 11:27:58;;;;;;;16.20;5.37;;;;;;;4.82;49.50;97771.05;2210186;81;21264;-77
2021/04/06 11:30:59;;;;;;;11.93;4.53;;;;;;;4.77;48.98;97769.67;2210034;81;21252;-76
2021/04/06 11:34:00;;;;;;;6.30;3.00;;;;;;;4.91;50.01;97782.84;2209670;81;21145;-77
2021/04/06 11:37:01;;;;;;;9.93;4.23;;;;;;;4.86;47.64;97776.72;2209443;79;21297;-76
2021/04/06 11:40:02;;;;;;;7.67;3.57;;;;;;;4.99;48.27;97768.31;2209942;81;21547;-78
2021/04/06 11:43:03;;;;;;;9.40;3.13;;;;;;;5.18;45.66;97771.20;2210085;81;21087;-78
2021/04/06 11:46:04;;;;;;;10.03;3.80;;;;;;;5.57;45.25;97764.48;2210068;81;21532;-78
2021/04/06 11:49:05;;;;;;;7.93;3.67;;;;;;;5.51;44.76;97754.92;2210042;81;21393;-79
2021/04/06 11:52:07;;;;;;;12.57;4.63;;;;;;;5.37;45.68;97756.02;2210061;81;21145;-77
2021/04/06 11:55:08;;;;;;;12.30;4.53;;;;;;;5.07;47.30;97762.84;2210007;81;21268;-77
2021/04/06 11:58:09;;;;;;;14.10;5.33;;;;;;;4.96;48.36;97755.76;2209906;81;21664;-77
2021/04/06 12:01:10;;;;;;;30.83;18.00;;;;;;;4.87;47.82;97757.77;2210223;81;21141;-77
2021/04/06 12:04:11;;;;;;;32.87;14.07;;;;;;;4.85;47.83;97756.00;2209917;80;21265;-78
2021/04/06 12:07:12;;;;;;;22.20;7.73;;;;;;;5.05;46.90;97758.07;2209903;80;21543;-77
2021/04/06 12:10:15;;;;;;;10.53;4.43;;;;;;;5.42;47.79;97749.61;2210056;81;21547;-78
2021/04/06 12:13:16;;;;;;;8.87;3.83;;;;;;;5.73;44.93;97753.07;2209927;81;21142;-79
2021/04/06 12:16:17;;;;;;;14.63;5.50;;;;;;;5.78;46.31;97746.66;2209943;81;21175;-79
2021/04/06 12:19:18;;;;;;;9.90;4.17;;;;;;;5.87;46.06;97742.89;2209906;81;21562;-77
2021/04/06 12:22:19;;;;;;;13.23;4.07;;;;;;;5.92;44.52;97744.28;2210134;81;21415;-77
2021/04/06 12:25:22;;;;;;;10.00;4.47;;;;;;;5.68;45.02;97737.03;2209838;81;21134;-78
2021/04/06 12:28:23;;;;;;;16.63;5.23;;;;;;;5.53;46.29;97739.41;2209682;81;21253;-77
2021/04/06 12:31:24;;;;;;;12.13;4.23;;;;;;;5.62;47.79;97745.58;2209881;81;21110;-77
2021/04/06 12:34:25;;;;;;;11.83;5.33;;;;;;;5.51;46.04;97747.16;2209914;81;21134;-77
2021/04/06 12:37:27;;;;;;;17.40;5.13;;;;;;;5.03;48.73;97754.59;2209846;80;21107;-77
2021/04/06 12:40:31;;;;;;;14.43;6.23;;;;;;;4.43;50.45;97762.16;2210086;81;21145;-76
2021/04/06 12:43:32;;;;;;;13.77;6.13;;;;;;;4.24;51.21;97753.16;2209441;80;21269;-78
2021/04/06 12:46:36;;;;;;;20.30;8.10;;;;;;;4.23;51.33;97746.67;2209887;81;21257;-77
2021/04/06 12:49:37;;;;;;;19.10;9.13;;;;;;;4.27;51.18;97743.30;2209085;81;21256;-76
2021/04/06 12:52:38;;;;;;;21.13;8.27;;;;;;;4.41;51.20;97741.45;2209141;81;21087;-76
2021/04/06 12:55:39;;;;;;;11.70;5.40;;;;;;;4.70;51.56;97732.92;2210054;81;21130;-78
2021/04/06 12:58:40;;;;;;;9.57;5.20;;;;;;;4.95;49.40;97730.74;2209784;81;21264;-78
2021/04/06 13:01:41;;;;;;;8.63;4.20;;;;;;;5.20;50.76;97739.75;2209867;81;21462;-78
2021/04/06 13:04:42;;;;;;;12.60;4.00;;;;;;;5.17;47.26;97739.28;2209919;81;21114;-78
2021/04/06 13:07:43;;;;;;;11.60;4.27;;;;;;;4.96;45.49;97741.11;2209726;81;21276;-80
2021/04/06 13:10:45;;;;;;;10.80;4.47;;;;;;;5.01;47.34;97735.59;2210166;81;21245;-76
2021/04/06 13:13:46;;;;;;;14.13;7.20;;;;;;;5.28;47.72;97730.42;2210064;81;21260;-79
2021/04/06 13:16:47;;;;;;;14.00;5.43;;;;;;;5.54;46.12;97720.02;2210056;81;21244;-78
2021/04/06 13:19:48;;;;;;;9.67;3.60;;;;;;;5.82;45.77;97725.55;2210139;81;21149;-78
2021/04/06 13:22:49;;;;;;;11.80;4.03;;;;;;;5.88;44.13;97720.03;2210157;81;21264;-77
2021/04/06 13:25:50;;;;;;;10.17;4.50;;;;;;;5.96;45.35;97715.84;2209883;81;21265;-77
2021/04/06 13:28:51;;;;;;;12.37;5.83;;;;;;;6.22;45.65;97714.00;2209883;81;21142;-78
2021/04/06 13:31:53;;;;;;;12.60;5.53;;;;;;;6.44;45.32;97716.39;2209921;81;21265;-77
2021/04/06 13:34:54;;;;;;;11.53;4.60;;;;;;;6.38;42.47;97707.70;2209767;81;21150;-78
2021/04/06 13:37:55;;;;;;;11.97;4.37;;;;;;;6.43;42.26;97710.77;2211811;80;21574;-79
2021/04/06 13:40:56;;;;;;;8.50;4.07;;;;;;;6.55;41.41;97714.77;2220777;80;21145;-77
2021/04/06 13:43:57;;;;;;;8.87;4.50;;;;;;;6.79;40.77;97711.53;2220581;80;21264;-79
2021/04/06 13:46:58;;;;;;;12.03;5.30;;;;;;;7.07;41.58;97708.77;2220541;80;21162;-78
2021/04/06 13:49:59;;;;;;;6.50;4.20;;;;;;;7.13;40.66;97704.91;2220688;80;21566;-79
2021/04/06 13:53:00;;;;;;;12.20;4.93;;;;;;;6.75;41.14;97709.34;2220880;80;21252;-79
2021/04/06 13:56:01;;;;;;;9.03;4.47;;;;;;;6.51;42.09;97713.00;2220571;80;21264;-77
2021/04/06 13:59:02;;;;;;;12.87;5.60;;;;;;;5.82;40.88;97719.95;2220470;80;21284;-79
2021/04/06 14:02:03;;;;;;;13.73;6.73;;;;;;;5.82;40.88;97719.95;2220692;80;21252;-78
2021/04/06 14:05:04;;;;;;;15.70;6.47;;;;;;;5.58;43.25;97720.50;2220568;80;21251;-78
2021/04/06 14:08:05;;;;;;;20.43;11.40;;;;;;;5.49;43.57;97716.50;2220405;80;21279;-80
2021/04/06 14:11:06;;;;;;;23.20;10.73;;;;;;;5.55;42.27;97712.70;2220964;80;21244;-78